sensor_id;sensor_type;location;lat;lon;timestamp;temperature;humidity
41310;DHT22;27057;51.438;-0.010;2023-02-01T00:00:35;5.90;99.90
41310;DHT22;27057;51.438;-0.010;2023-02-01T00:03:02;6.00;99.90
41310;DHT22;27057;51.438;-0.010;2023-02-01T00:05:30;6.10;99.90
41310;DHT22;27057;51.438;-0.010;2023-02-01T00:07:58;6.10;99.90
41310;DHT22;27057;51.438;-0.010;2023-02-01T00:10:25;5.50;99.90
41310;DHT22;27057;51.438;-0.010;2023-02-01T00:12:52;5.70;99.90
41310;DHT22;27057;51.438;-0.010;2023-02-01T00:15:20;5.80;99.90
41310;DHT22;27057;51.438;-0.010;2023-02-01T00:20:16;5.80;99.90
41310;DHT22;27057;51.438;-0.010;2023-02-01T00:22:43;5.80;99.90
41310;DHT22;27057;51.438;-0.010;2023-02-01T00:25:11;5.90;99.90
41310;DHT22;27057;51.438;-0.010;2023-02-01T00:27:38;5.70;99.90
41310;DHT22;27057;51.438;-0.010;2023-02-01T00:30:06;5.80;99.90
41310;DHT22;27057;51.438;-0.010;2023-02-01T00:32:35;5.70;99.90
41310;DHT22;27057;51.438;-0.010;2023-02-01T00:35:02;6.80;99.90
41310;DHT22;27057;51.438;-0.010;2023-02-01T00:37:30;5.70;99.90
41310;DHT22;27057;51.438;-0.010;2023-02-01T00:39:57;5.60;99.90
41310;DHT22;27057;51.438;-0.010;2023-02-01T00:42:25;6.20;99.90
41310;DHT22;27057;51.438;-0.010;2023-02-01T00:47:20;5.70;99.90
41310;DHT22;27057;51.438;-0.010;2023-02-01T00:49:47;7.10;99.90
41310;DHT22;27057;51.438;-0.010;2023-02-01T00:52:14;5.40;99.90
41310;DHT22;27057;51.438;-0.010;2023-02-01T00:57:09;5.70;99.90
41310;DHT22;27057;51.438;-0.010;2023-02-01T01:02:04;5.70;99.90
41310;DHT22;27057;51.438;-0.010;2023-02-01T01:04:32;8.80;99.90
41310;DHT22;27057;51.438;-0.010;2023-02-01T01:07:00;5.70;99.90
41310;DHT22;27057;51.438;-0.010;2023-02-01T01:09:27;5.60;99.90
41310;DHT22;27057;51.438;-0.010;2023-02-01T01:11:54;6.00;99.90
41310;DHT22;27057;51.438;-0.010;2023-02-01T01:14:21;8.10;99.90
41310;DHT22;27057;51.438;-0.010;2023-02-01T01:16:50;5.90;99.90
41310;DHT22;27057;51.438;-0.010;2023-02-01T01:19:18;5.90;99.90
41310;DHT22;27057;51.438;-0.010;2023-02-01T01:21:45;5.60;99.90
41310;DHT22;27057;51.438;-0.010;2023-02-01T01:24:12;5.80;99.90
41310;DHT22;27057;51.438;-0.010;2023-02-01T01:26:40;5.80;99.90
41310;DHT22;27057;51.438;-0.010;2023-02-01T01:29:09;5.80;99.90
41310;DHT22;27057;51.438;-0.010;2023-02-01T01:31:37;5.70;99.90
41310;DHT22;27057;51.438;-0.010;2023-02-01T01:36:32;5.80;99.90
41310;DHT22;27057;51.438;-0.010;2023-02-01T01:38:59;5.60;99.90
41310;DHT22;27057;51.438;-0.010;2023-02-01T01:41:30;5.80;99.90
41310;DHT22;27057;51.438;-0.010;2023-02-01T01:44:53;5.80;99.90
41310;DHT22;27057;51.438;-0.010;2023-02-01T01:49:24;5.90;99.90
41310;DHT22;27057;51.438;-0.010;2023-02-01T01:51:58;5.70;99.90
41310;DHT22;27057;51.438;-0.010;2023-02-01T01:54:33;5.80;99.90
41310;DHT22;27057;51.438;-0.010;2023-02-01T01:57:09;5.80;99.90
41310;DHT22;27057;51.438;-0.010;2023-02-01T01:59:38;5.90;99.90
41310;DHT22;27057;51.438;-0.010;2023-02-01T02:02:07;5.60;99.90
41310;DHT22;27057;51.438;-0.010;2023-02-01T02:04:35;5.70;99.90
41310;DHT22;27057;51.438;-0.010;2023-02-01T02:07:10;5.60;99.90
41310;DHT22;27057;51.438;-0.010;2023-02-01T02:09:39;5.80;99.90
41310;DHT22;27057;51.438;-0.010;2023-02-01T02:12:14;6.50;99.90
41310;DHT22;27057;51.438;-0.010;2023-02-01T02:14:41;5.60;99.90
41310;DHT22;27057;51.438;-0.010;2023-02-01T02:25:59;5.80;99.90
41310;DHT22;27057;51.438;-0.010;2023-02-01T02:36:42;6.60;99.90
41310;DHT22;27057;51.438;-0.010;2023-02-01T02:40:04;5.70;99.90
41310;DHT22;27057;51.438;-0.010;2023-02-01T02:42:49;5.70;99.90
41310;DHT22;27057;51.438;-0.010;2023-02-01T02:45:43;5.70;99.90
41310;DHT22;27057;51.438;-0.010;2023-02-01T02:48:46;6.10;99.90
41310;DHT22;27057;51.438;-0.010;2023-02-01T02:51:15;5.80;99.90
41310;DHT22;27057;51.438;-0.010;2023-02-01T02:56:55;5.70;99.90
41310;DHT22;27057;51.438;-0.010;2023-02-01T02:59:44;5.90;99.90
41310;DHT22;27057;51.438;-0.010;2023-02-01T03:02:33;5.80;99.90
41310;DHT22;27057;51.438;-0.010;2023-02-01T03:05:20;5.90;99.90
41310;DHT22;27057;51.438;-0.010;2023-02-01T03:08:12;6.00;99.90
41310;DHT22;27057;51.438;-0.010;2023-02-01T03:11:00;6.00;99.90
41310;DHT22;27057;51.438;-0.010;2023-02-01T03:13:58;6.00;99.90
41310;DHT22;27057;51.438;-0.010;2023-02-01T03:21:43;6.10;99.90
41310;DHT22;27057;51.438;-0.010;2023-02-01T03:24:23;6.10;99.90
41310;DHT22;27057;51.438;-0.010;2023-02-01T03:27:06;5.90;99.90
41310;DHT22;27057;51.438;-0.010;2023-02-01T03:32:26;6.00;99.90
41310;DHT22;27057;51.438;-0.010;2023-02-01T03:34:54;6.00;99.90
41310;DHT22;27057;51.438;-0.010;2023-02-01T03:37:26;6.10;99.90
41310;DHT22;27057;51.438;-0.010;2023-02-01T03:40:05;6.60;99.90
41310;DHT22;27057;51.438;-0.010;2023-02-01T03:42:38;6.00;99.90
41310;DHT22;27057;51.438;-0.010;2023-02-01T03:47:39;6.00;99.90
41310;DHT22;27057;51.438;-0.010;2023-02-01T03:50:14;6.00;99.90
41310;DHT22;27057;51.438;-0.010;2023-02-01T03:52:51;5.90;99.90
41310;DHT22;27057;51.438;-0.010;2023-02-01T03:55:22;5.90;99.90
41310;DHT22;27057;51.438;-0.010;2023-02-01T03:58:11;5.90;99.90
41310;DHT22;27057;51.438;-0.010;2023-02-01T04:00:40;5.90;99.90
41310;DHT22;27057;51.438;-0.010;2023-02-01T04:03:07;5.90;99.90
41310;DHT22;27057;51.438;-0.010;2023-02-01T04:05:34;6.00;99.90
41310;DHT22;27057;51.438;-0.010;2023-02-01T04:08:05;5.90;99.90
41310;DHT22;27057;51.438;-0.010;2023-02-01T04:10:32;5.60;99.90
41310;DHT22;27057;51.438;-0.010;2023-02-01T04:12:59;5.90;99.90
41310;DHT22;27057;51.438;-0.010;2023-02-01T04:15:27;5.90;99.90
41310;DHT22;27057;51.438;-0.010;2023-02-01T04:17:54;5.90;99.90
41310;DHT22;27057;51.438;-0.010;2023-02-01T04:20:21;5.90;99.90
41310;DHT22;27057;51.438;-0.010;2023-02-01T04:22:49;5.90;99.90
41310;DHT22;27057;51.438;-0.010;2023-02-01T04:25:17;5.90;99.90
41310;DHT22;27057;51.438;-0.010;2023-02-01T04:27:46;5.80;99.90
41310;DHT22;27057;51.438;-0.010;2023-02-01T04:30:14;5.90;99.90
41310;DHT22;27057;51.438;-0.010;2023-02-01T04:32:41;5.90;99.90
41310;DHT22;27057;51.438;-0.010;2023-02-01T04:35:09;5.90;99.90
41310;DHT22;27057;51.438;-0.010;2023-02-01T04:37:36;5.90;99.90
41310;DHT22;27057;51.438;-0.010;2023-02-01T04:40:04;5.90;99.90
41310;DHT22;27057;51.438;-0.010;2023-02-01T04:42:31;5.90;99.90
41310;DHT22;27057;51.438;-0.010;2023-02-01T04:44:59;5.90;99.90
41310;DHT22;27057;51.438;-0.010;2023-02-01T04:47:26;5.90;99.90
41310;DHT22;27057;51.438;-0.010;2023-02-01T04:49:53;6.60;99.90
41310;DHT22;27057;51.438;-0.010;2023-02-01T04:52:21;5.90;99.90
41310;DHT22;27057;51.438;-0.010;2023-02-01T04:54:48;6.10;99.90
41310;DHT22;27057;51.438;-0.010;2023-02-01T04:57:15;6.00;99.90
41310;DHT22;27057;51.438;-0.010;2023-02-01T04:59:42;6.00;99.90
41310;DHT22;27057;51.438;-0.010;2023-02-01T05:02:09;6.00;99.90
41310;DHT22;27057;51.438;-0.010;2023-02-01T05:04:37;6.00;99.90
41310;DHT22;27057;51.438;-0.010;2023-02-01T05:07:04;6.00;99.90
41310;DHT22;27057;51.438;-0.010;2023-02-01T05:09:31;6.00;99.90
41310;DHT22;27057;51.438;-0.010;2023-02-01T05:11:59;5.90;99.90
41310;DHT22;27057;51.438;-0.010;2023-02-01T05:14:45;5.90;99.90
41310;DHT22;27057;51.438;-0.010;2023-02-01T05:17:12;6.00;99.90
41310;DHT22;27057;51.438;-0.010;2023-02-01T05:19:40;6.00;99.90
41310;DHT22;27057;51.438;-0.010;2023-02-01T05:22:08;6.20;99.90
41310;DHT22;27057;51.438;-0.010;2023-02-01T05:24:35;6.00;99.90
41310;DHT22;27057;51.438;-0.010;2023-02-01T05:27:02;5.90;99.90
41310;DHT22;27057;51.438;-0.010;2023-02-01T05:29:30;6.00;99.90
41310;DHT22;27057;51.438;-0.010;2023-02-01T05:31:57;5.90;99.90
41310;DHT22;27057;51.438;-0.010;2023-02-01T05:34:38;6.00;99.90
41310;DHT22;27057;51.438;-0.010;2023-02-01T05:37:05;5.90;99.90
41310;DHT22;27057;51.438;-0.010;2023-02-01T05:39:32;6.00;99.90
41310;DHT22;27057;51.438;-0.010;2023-02-01T05:42:00;6.00;99.90
41310;DHT22;27057;51.438;-0.010;2023-02-01T05:44:27;6.10;99.90
41310;DHT22;27057;51.438;-0.010;2023-02-01T05:46:54;6.20;99.90
41310;DHT22;27057;51.438;-0.010;2023-02-01T05:49:22;6.10;99.90
41310;DHT22;27057;51.438;-0.010;2023-02-01T05:51:49;6.10;99.90
41310;DHT22;27057;51.438;-0.010;2023-02-01T05:54:16;6.10;99.90
41310;DHT22;27057;51.438;-0.010;2023-02-01T05:56:43;5.90;99.90
41310;DHT22;27057;51.438;-0.010;2023-02-01T05:59:11;6.00;99.90
41310;DHT22;27057;51.438;-0.010;2023-02-01T06:01:38;6.30;99.90
41310;DHT22;27057;51.438;-0.010;2023-02-01T06:04:05;6.30;99.90
41310;DHT22;27057;51.438;-0.010;2023-02-01T06:06:33;5.90;99.90
41310;DHT22;27057;51.438;-0.010;2023-02-01T06:09:01;5.90;99.90
41310;DHT22;27057;51.438;-0.010;2023-02-01T06:11:28;5.90;99.90
41310;DHT22;27057;51.438;-0.010;2023-02-01T06:13:59;5.90;99.90
41310;DHT22;27057;51.438;-0.010;2023-02-01T06:16:27;5.90;99.90
41310;DHT22;27057;51.438;-0.010;2023-02-01T06:18:54;6.00;99.90
41310;DHT22;27057;51.438;-0.010;2023-02-01T06:21:21;6.10;99.90
41310;DHT22;27057;51.438;-0.010;2023-02-01T06:23:53;6.00;99.90
41310;DHT22;27057;51.438;-0.010;2023-02-01T06:26:21;5.90;99.90
41310;DHT22;27057;51.438;-0.010;2023-02-01T06:28:49;5.80;99.90
41310;DHT22;27057;51.438;-0.010;2023-02-01T06:31:16;6.00;99.90
41310;DHT22;27057;51.438;-0.010;2023-02-01T06:33:44;6.30;99.90
41310;DHT22;27057;51.438;-0.010;2023-02-01T06:36:14;6.00;99.90
41310;DHT22;27057;51.438;-0.010;2023-02-01T06:38:42;5.90;99.90
41310;DHT22;27057;51.438;-0.010;2023-02-01T06:41:10;6.40;99.90
41310;DHT22;27057;51.438;-0.010;2023-02-01T06:43:38;6.00;99.90
41310;DHT22;27057;51.438;-0.010;2023-02-01T06:46:07;5.90;99.90
41310;DHT22;27057;51.438;-0.010;2023-02-01T06:48:35;6.00;99.90
41310;DHT22;27057;51.438;-0.010;2023-02-01T06:51:02;6.00;99.90
41310;DHT22;27057;51.438;-0.010;2023-02-01T06:53:30;6.10;99.90
41310;DHT22;27057;51.438;-0.010;2023-02-01T06:55:59;5.90;99.90
41310;DHT22;27057;51.438;-0.010;2023-02-01T06:58:32;6.00;99.90
41310;DHT22;27057;51.438;-0.010;2023-02-01T07:01:07;6.10;99.90
41310;DHT22;27057;51.438;-0.010;2023-02-01T07:03:35;6.00;99.90
41310;DHT22;27057;51.438;-0.010;2023-02-01T07:06:03;6.00;99.90
41310;DHT22;27057;51.438;-0.010;2023-02-01T07:08:32;6.10;99.90
41310;DHT22;27057;51.438;-0.010;2023-02-01T07:11:04;6.10;99.90
41310;DHT22;27057;51.438;-0.010;2023-02-01T07:13:32;6.10;99.90
41310;DHT22;27057;51.438;-0.010;2023-02-01T07:16:07;6.70;99.90
41310;DHT22;27057;51.438;-0.010;2023-02-01T07:18:36;6.20;99.90
41310;DHT22;27057;51.438;-0.010;2023-02-01T07:21:03;6.10;99.90
41310;DHT22;27057;51.438;-0.010;2023-02-01T07:23:30;6.30;99.90
41310;DHT22;27057;51.438;-0.010;2023-02-01T07:26:00;6.20;99.90
41310;DHT22;27057;51.438;-0.010;2023-02-01T07:28:29;6.30;99.90
41310;DHT22;27057;51.438;-0.010;2023-02-01T07:31:18;6.40;99.90
41310;DHT22;27057;51.438;-0.010;2023-02-01T07:33:49;6.40;99.90
41310;DHT22;27057;51.438;-0.010;2023-02-01T07:36:19;6.40;99.90
41310;DHT22;27057;51.438;-0.010;2023-02-01T07:38:47;6.40;99.90
41310;DHT22;27057;51.438;-0.010;2023-02-01T07:41:15;6.40;99.90
41310;DHT22;27057;51.438;-0.010;2023-02-01T07:43:42;6.40;99.90
41310;DHT22;27057;51.438;-0.010;2023-02-01T07:46:10;6.30;99.90
41310;DHT22;27057;51.438;-0.010;2023-02-01T07:48:38;6.80;99.90
41310;DHT22;27057;51.438;-0.010;2023-02-01T07:51:09;6.30;99.90
41310;DHT22;27057;51.438;-0.010;2023-02-01T07:53:38;6.30;99.90
41310;DHT22;27057;51.438;-0.010;2023-02-01T07:56:11;6.30;99.90
41310;DHT22;27057;51.438;-0.010;2023-02-01T07:58:40;6.20;99.90
41310;DHT22;27057;51.438;-0.010;2023-02-01T08:01:16;6.30;99.90
41310;DHT22;27057;51.438;-0.010;2023-02-01T08:03:55;6.20;99.90
41310;DHT22;27057;51.438;-0.010;2023-02-01T08:06:23;6.30;99.90
41310;DHT22;27057;51.438;-0.010;2023-02-01T08:08:53;6.30;99.90
41310;DHT22;27057;51.438;-0.010;2023-02-01T08:11:21;6.30;99.90
41310;DHT22;27057;51.438;-0.010;2023-02-01T08:13:49;6.30;99.90
41310;DHT22;27057;51.438;-0.010;2023-02-01T08:16:18;6.30;99.90
41310;DHT22;27057;51.438;-0.010;2023-02-01T08:18:46;6.30;99.90
41310;DHT22;27057;51.438;-0.010;2023-02-01T08:21:15;6.30;99.90
41310;DHT22;27057;51.438;-0.010;2023-02-01T08:23:44;6.30;99.90
41310;DHT22;27057;51.438;-0.010;2023-02-01T08:26:14;6.30;99.90
41310;DHT22;27057;51.438;-0.010;2023-02-01T08:28:45;6.30;99.90
41310;DHT22;27057;51.438;-0.010;2023-02-01T08:31:16;6.30;99.90
41310;DHT22;27057;51.438;-0.010;2023-02-01T08:33:49;6.40;99.90
41310;DHT22;27057;51.438;-0.010;2023-02-01T08:36:17;6.40;99.90
41310;DHT22;27057;51.438;-0.010;2023-02-01T08:38:45;6.40;99.90
41310;DHT22;27057;51.438;-0.010;2023-02-01T08:41:15;6.40;99.90
41310;DHT22;27057;51.438;-0.010;2023-02-01T08:43:43;6.50;99.90
41310;DHT22;27057;51.438;-0.010;2023-02-01T08:46:11;6.50;99.90
41310;DHT22;27057;51.438;-0.010;2023-02-01T08:48:39;6.50;99.90
41310;DHT22;27057;51.438;-0.010;2023-02-01T08:51:12;6.50;99.90
41310;DHT22;27057;51.438;-0.010;2023-02-01T08:53:40;6.50;99.90
41310;DHT22;27057;51.438;-0.010;2023-02-01T08:56:10;6.60;99.90
41310;DHT22;27057;51.438;-0.010;2023-02-01T08:58:38;6.60;99.90
41310;DHT22;27057;51.438;-0.010;2023-02-01T09:01:07;6.60;99.90
41310;DHT22;27057;51.438;-0.010;2023-02-01T09:03:35;6.60;99.90
41310;DHT22;27057;51.438;-0.010;2023-02-01T09:06:04;7.70;99.90
41310;DHT22;27057;51.438;-0.010;2023-02-01T09:08:33;6.70;99.90
41310;DHT22;27057;51.438;-0.010;2023-02-01T09:11:05;6.60;99.90
41310;DHT22;27057;51.438;-0.010;2023-02-01T09:13:33;6.70;99.90
41310;DHT22;27057;51.438;-0.010;2023-02-01T09:16:03;6.90;99.90
41310;DHT22;27057;51.438;-0.010;2023-02-01T09:18:31;6.80;99.90
41310;DHT22;27057;51.438;-0.010;2023-02-01T09:20:58;6.90;99.90
41310;DHT22;27057;51.438;-0.010;2023-02-01T09:23:26;7.50;99.90
41310;DHT22;27057;51.438;-0.010;2023-02-01T09:25:53;7.00;99.90
41310;DHT22;27057;51.438;-0.010;2023-02-01T09:28:21;7.70;99.90
41310;DHT22;27057;51.438;-0.010;2023-02-01T09:30:48;6.90;99.90
41310;DHT22;27057;51.438;-0.010;2023-02-01T09:33:15;7.20;99.90
41310;DHT22;27057;51.438;-0.010;2023-02-01T09:35:44;7.30;99.90
41310;DHT22;27057;51.438;-0.010;2023-02-01T09:38:12;7.30;99.90
41310;DHT22;27057;51.438;-0.010;2023-02-01T09:40:41;7.30;99.90
41310;DHT22;27057;51.438;-0.010;2023-02-01T09:43:37;7.40;99.90
41310;DHT22;27057;51.438;-0.010;2023-02-01T09:48:47;7.40;99.90
41310;DHT22;27057;51.438;-0.010;2023-02-01T09:51:22;7.40;99.90
41310;DHT22;27057;51.438;-0.010;2023-02-01T10:01:59;7.50;99.90
41310;DHT22;27057;51.438;-0.010;2023-02-01T10:04:28;8.10;99.90
41310;DHT22;27057;51.438;-0.010;2023-02-01T10:15:42;7.90;99.90
41310;DHT22;27057;51.438;-0.010;2023-02-01T10:21:17;7.80;99.90
41310;DHT22;27057;51.438;-0.010;2023-02-01T10:23:53;8.00;99.90
41310;DHT22;27057;51.438;-0.010;2023-02-01T10:26:44;7.90;99.90
41310;DHT22;27057;51.438;-0.010;2023-02-01T10:29:19;8.10;99.90
41310;DHT22;27057;51.438;-0.010;2023-02-01T10:31:46;8.20;99.90
41310;DHT22;27057;51.438;-0.010;2023-02-01T10:34:21;8.30;99.90
41310;DHT22;27057;51.438;-0.010;2023-02-01T10:36:56;8.30;99.90
41310;DHT22;27057;51.438;-0.010;2023-02-01T10:39:24;8.30;99.90
41310;DHT22;27057;51.438;-0.010;2023-02-01T10:41:52;8.50;99.90
41310;DHT22;27057;51.438;-0.010;2023-02-01T10:44:27;8.70;99.90
41310;DHT22;27057;51.438;-0.010;2023-02-01T10:46:55;8.40;99.90
41310;DHT22;27057;51.438;-0.010;2023-02-01T10:49:32;8.50;99.90
41310;DHT22;27057;51.438;-0.010;2023-02-01T10:54:37;8.70;99.90
41310;DHT22;27057;51.438;-0.010;2023-02-01T10:57:09;8.80;99.90
41310;DHT22;27057;51.438;-0.010;2023-02-01T10:59:37;8.80;99.90
41310;DHT22;27057;51.438;-0.010;2023-02-01T11:05:05;9.30;99.90
41310;DHT22;27057;51.438;-0.010;2023-02-01T11:07:36;8.90;99.90
41310;DHT22;27057;51.438;-0.010;2023-02-01T11:10:04;8.80;99.90
41310;DHT22;27057;51.438;-0.010;2023-02-01T11:12:35;8.80;99.90
41310;DHT22;27057;51.438;-0.010;2023-02-01T11:15:19;8.80;99.90
41310;DHT22;27057;51.438;-0.010;2023-02-01T11:17:49;9.00;99.90
41310;DHT22;27057;51.438;-0.010;2023-02-01T11:23:00;9.30;99.90
41310;DHT22;27057;51.438;-0.010;2023-02-01T11:25:28;9.40;99.90
41310;DHT22;27057;51.438;-0.010;2023-02-01T11:27:57;9.50;99.90
41310;DHT22;27057;51.438;-0.010;2023-02-01T11:30:33;9.60;99.90
41310;DHT22;27057;51.438;-0.010;2023-02-01T11:33:03;9.90;99.90
41310;DHT22;27057;51.438;-0.010;2023-02-01T11:35:37;10.10;99.90
41310;DHT22;27057;51.438;-0.010;2023-02-01T11:38:22;10.30;99.90
41310;DHT22;27057;51.438;-0.010;2023-02-01T11:40:52;10.20;99.90
41310;DHT22;27057;51.438;-0.010;2023-02-01T11:43:27;10.40;99.90
41310;DHT22;27057;51.438;-0.010;2023-02-01T11:46:00;10.50;99.90
41310;DHT22;27057;51.438;-0.010;2023-02-01T11:48:31;10.30;99.90
41310;DHT22;27057;51.438;-0.010;2023-02-01T11:54:33;10.50;99.90
41310;DHT22;27057;51.438;-0.010;2023-02-01T11:57:21;10.80;99.90
41310;DHT22;27057;51.438;-0.010;2023-02-01T12:11:48;11.80;99.90
41310;DHT22;27057;51.438;-0.010;2023-02-01T12:14:28;12.00;99.90
41310;DHT22;27057;51.438;-0.010;2023-02-01T12:28:29;12.30;99.90
41310;DHT22;27057;51.438;-0.010;2023-02-01T12:33:49;12.10;99.90
41310;DHT22;27057;51.438;-0.010;2023-02-01T12:36:32;11.80;99.90
41310;DHT22;27057;51.438;-0.010;2023-02-01T12:44:53;12.10;99.90
41310;DHT22;27057;51.438;-0.010;2023-02-01T12:47:31;12.00;99.90
41310;DHT22;27057;51.438;-0.010;2023-02-01T12:50:28;11.80;99.90
41310;DHT22;27057;51.438;-0.010;2023-02-01T12:53:08;11.70;99.90
41310;DHT22;27057;51.438;-0.010;2023-02-01T12:55:43;11.50;99.90
41310;DHT22;27057;51.438;-0.010;2023-02-01T12:58:27;11.70;99.90
41310;DHT22;27057;51.438;-0.010;2023-02-01T13:03:41;11.10;99.90
41310;DHT22;27057;51.438;-0.010;2023-02-01T13:06:15;11.10;99.90
41310;DHT22;27057;51.438;-0.010;2023-02-01T13:11:38;11.50;99.90
41310;DHT22;27057;51.438;-0.010;2023-02-01T13:16:52;11.90;99.90
41310;DHT22;27057;51.438;-0.010;2023-02-01T13:21:59;11.90;99.90
41310;DHT22;27057;51.438;-0.010;2023-02-01T13:24:36;12.20;99.90
41310;DHT22;27057;51.438;-0.010;2023-02-01T13:27:05;12.30;99.90
41310;DHT22;27057;51.438;-0.010;2023-02-01T13:29:38;12.20;99.90
41310;DHT22;27057;51.438;-0.010;2023-02-01T13:35:29;12.20;99.90
41310;DHT22;27057;51.438;-0.010;2023-02-01T13:43:40;12.00;99.90
41310;DHT22;27057;51.438;-0.010;2023-02-01T13:46:11;11.90;99.90
41310;DHT22;27057;51.438;-0.010;2023-02-01T13:48:57;11.80;99.90
41310;DHT22;27057;51.438;-0.010;2023-02-01T13:51:44;11.60;99.90
41310;DHT22;27057;51.438;-0.010;2023-02-01T13:54:38;11.40;99.90
41310;DHT22;27057;51.438;-0.010;2023-02-01T13:57:48;11.40;99.90
41310;DHT22;27057;51.438;-0.010;2023-02-01T14:13:39;11.10;99.90
41310;DHT22;27057;51.438;-0.010;2023-02-01T14:16:13;11.10;99.90
41310;DHT22;27057;51.438;-0.010;2023-02-01T14:32:15;11.20;99.90
41310;DHT22;27057;51.438;-0.010;2023-02-01T14:47:43;11.10;99.90
41310;DHT22;27057;51.438;-0.010;2023-02-01T14:53:13;11.00;99.90
41310;DHT22;27057;51.438;-0.010;2023-02-01T15:06:29;11.10;99.90
41310;DHT22;27057;51.438;-0.010;2023-02-01T15:09:11;11.10;99.90
41310;DHT22;27057;51.438;-0.010;2023-02-01T15:17:22;11.10;99.90
41310;DHT22;27057;51.438;-0.010;2023-02-01T15:19:54;11.10;99.90
41310;DHT22;27057;51.438;-0.010;2023-02-01T15:22:22;11.00;99.90
41310;DHT22;27057;51.438;-0.010;2023-02-01T15:24:58;11.00;99.90
41310;DHT22;27057;51.438;-0.010;2023-02-01T15:27:29;10.90;99.90
41310;DHT22;27057;51.438;-0.010;2023-02-01T15:30:12;10.90;99.90
41310;DHT22;27057;51.438;-0.010;2023-02-01T15:32:43;11.00;99.90
41310;DHT22;27057;51.438;-0.010;2023-02-01T15:38:29;11.00;99.90
41310;DHT22;27057;51.438;-0.010;2023-02-01T15:46:29;10.90;99.90
41310;DHT22;27057;51.438;-0.010;2023-02-01T15:48:58;10.80;99.90
41310;DHT22;27057;51.438;-0.010;2023-02-01T15:51:28;10.70;99.90
41310;DHT22;27057;51.438;-0.010;2023-02-01T15:53:58;10.80;99.90
41310;DHT22;27057;51.438;-0.010;2023-02-01T15:56:32;10.70;99.90
41310;DHT22;27057;51.438;-0.010;2023-02-01T15:59:02;10.70;99.90
41310;DHT22;27057;51.438;-0.010;2023-02-01T16:01:34;10.70;99.90
41310;DHT22;27057;51.438;-0.010;2023-02-01T16:09:23;10.60;99.90
41310;DHT22;27057;51.438;-0.010;2023-02-01T16:11:57;10.60;99.90
41310;DHT22;27057;51.438;-0.010;2023-02-01T16:14:25;10.60;99.90
41310;DHT22;27057;51.438;-0.010;2023-02-01T16:16:56;10.50;99.90
41310;DHT22;27057;51.438;-0.010;2023-02-01T16:19:24;10.50;99.90
41310;DHT22;27057;51.438;-0.010;2023-02-01T16:21:55;10.40;99.90
41310;DHT22;27057;51.438;-0.010;2023-02-01T16:24:23;10.40;99.90
41310;DHT22;27057;51.438;-0.010;2023-02-01T16:26:52;10.40;99.90
41310;DHT22;27057;51.438;-0.010;2023-02-01T16:29:20;10.40;99.90
41310;DHT22;27057;51.438;-0.010;2023-02-01T16:31:48;10.40;99.90
41310;DHT22;27057;51.438;-0.010;2023-02-01T16:34:16;10.40;99.90
41310;DHT22;27057;51.438;-0.010;2023-02-01T16:36:48;10.30;99.90
41310;DHT22;27057;51.438;-0.010;2023-02-01T16:39:20;10.30;99.90
41310;DHT22;27057;51.438;-0.010;2023-02-01T16:41:47;10.30;99.90
41310;DHT22;27057;51.438;-0.010;2023-02-01T16:44:14;10.30;99.90
41310;DHT22;27057;51.438;-0.010;2023-02-01T16:46:46;10.30;99.90
41310;DHT22;27057;51.438;-0.010;2023-02-01T16:49:23;10.30;99.90
41310;DHT22;27057;51.438;-0.010;2023-02-01T16:51:52;10.20;99.90
41310;DHT22;27057;51.438;-0.010;2023-02-01T16:54:22;10.20;99.90
41310;DHT22;27057;51.438;-0.010;2023-02-01T16:56:49;10.20;99.90
41310;DHT22;27057;51.438;-0.010;2023-02-01T16:59:17;10.20;99.90
41310;DHT22;27057;51.438;-0.010;2023-02-01T17:01:44;10.20;99.90
41310;DHT22;27057;51.438;-0.010;2023-02-01T17:04:12;10.20;99.90
41310;DHT22;27057;51.438;-0.010;2023-02-01T17:06:39;10.10;99.90
41310;DHT22;27057;51.438;-0.010;2023-02-01T17:09:08;10.20;99.90
41310;DHT22;27057;51.438;-0.010;2023-02-01T17:11:36;10.20;99.90
41310;DHT22;27057;51.438;-0.010;2023-02-01T17:14:15;10.10;99.90
41310;DHT22;27057;51.438;-0.010;2023-02-01T17:16:44;10.10;99.90
41310;DHT22;27057;51.438;-0.010;2023-02-01T17:19:21;10.10;99.90
41310;DHT22;27057;51.438;-0.010;2023-02-01T17:21:53;10.10;99.90
41310;DHT22;27057;51.438;-0.010;2023-02-01T17:24:25;10.10;99.90
41310;DHT22;27057;51.438;-0.010;2023-02-01T17:27:02;10.10;99.90
41310;DHT22;27057;51.438;-0.010;2023-02-01T17:29:30;10.00;99.90
41310;DHT22;27057;51.438;-0.010;2023-02-01T17:31:58;10.10;99.90
41310;DHT22;27057;51.438;-0.010;2023-02-01T17:34:26;10.00;99.90
41310;DHT22;27057;51.438;-0.010;2023-02-01T17:36:54;10.00;99.90
41310;DHT22;27057;51.438;-0.010;2023-02-01T17:39:21;10.00;99.90
41310;DHT22;27057;51.438;-0.010;2023-02-01T17:42:11;10.00;99.90
41310;DHT22;27057;51.438;-0.010;2023-02-01T17:44:38;10.00;99.90
41310;DHT22;27057;51.438;-0.010;2023-02-01T17:47:06;9.90;99.90
41310;DHT22;27057;51.438;-0.010;2023-02-01T17:49:33;9.90;99.90
41310;DHT22;27057;51.438;-0.010;2023-02-01T17:52:02;9.90;99.90
41310;DHT22;27057;51.438;-0.010;2023-02-01T17:54:29;9.90;99.90
41310;DHT22;27057;51.438;-0.010;2023-02-01T17:56:57;9.90;99.90
41310;DHT22;27057;51.438;-0.010;2023-02-01T17:59:29;9.80;99.90
41310;DHT22;27057;51.438;-0.010;2023-02-01T18:01:56;9.80;99.90
41310;DHT22;27057;51.438;-0.010;2023-02-01T18:04:27;9.80;99.90
41310;DHT22;27057;51.438;-0.010;2023-02-01T18:06:54;9.80;99.90
41310;DHT22;27057;51.438;-0.010;2023-02-01T18:09:23;9.80;99.90
41310;DHT22;27057;51.438;-0.010;2023-02-01T18:11:51;9.80;99.90
41310;DHT22;27057;51.438;-0.010;2023-02-01T18:14:21;9.80;99.90
41310;DHT22;27057;51.438;-0.010;2023-02-01T18:16:48;9.80;99.90
41310;DHT22;27057;51.438;-0.010;2023-02-01T18:19:15;9.80;99.90
41310;DHT22;27057;51.438;-0.010;2023-02-01T18:21:43;9.80;99.90
41310;DHT22;27057;51.438;-0.010;2023-02-01T18:24:15;9.80;99.90
41310;DHT22;27057;51.438;-0.010;2023-02-01T18:26:43;9.80;99.90
41310;DHT22;27057;51.438;-0.010;2023-02-01T18:29:10;9.70;99.90
41310;DHT22;27057;51.438;-0.010;2023-02-01T18:31:44;9.70;99.90
41310;DHT22;27057;51.438;-0.010;2023-02-01T18:34:12;9.70;99.90
41310;DHT22;27057;51.438;-0.010;2023-02-01T18:36:50;9.80;99.90
41310;DHT22;27057;51.438;-0.010;2023-02-01T18:39:18;9.70;99.90
41310;DHT22;27057;51.438;-0.010;2023-02-01T18:41:47;10.40;99.90
41310;DHT22;27057;51.438;-0.010;2023-02-01T18:44:16;9.70;99.90
41310;DHT22;27057;51.438;-0.010;2023-02-01T18:46:43;9.60;99.90
41310;DHT22;27057;51.438;-0.010;2023-02-01T18:49:11;9.60;99.90
41310;DHT22;27057;51.438;-0.010;2023-02-01T18:51:40;9.60;99.90
41310;DHT22;27057;51.438;-0.010;2023-02-01T18:54:10;9.50;99.90
41310;DHT22;27057;51.438;-0.010;2023-02-01T18:56:38;9.50;99.90
41310;DHT22;27057;51.438;-0.010;2023-02-01T18:59:06;9.50;99.90
41310;DHT22;27057;51.438;-0.010;2023-02-01T19:01:34;9.50;99.90
41310;DHT22;27057;51.438;-0.010;2023-02-01T19:04:04;9.40;99.90
41310;DHT22;27057;51.438;-0.010;2023-02-01T19:06:41;9.40;99.90
41310;DHT22;27057;51.438;-0.010;2023-02-01T19:09:09;9.40;99.90
41310;DHT22;27057;51.438;-0.010;2023-02-01T19:11:36;9.40;99.90
41310;DHT22;27057;51.438;-0.010;2023-02-01T19:14:03;9.40;99.90
41310;DHT22;27057;51.438;-0.010;2023-02-01T19:16:31;9.30;99.90